Flight Track Log - Related Links

Times and Time Zones

All times are in EDT time to prevent confusion due to time zone crossing. See the SWR2819 flight status page for this flight to view local times or setup timezone preferences in your user account.

Time Position Orientation Groundspeed Altitude Reporting Facility
EDT Latitude Longitude Course Direction KTS MPH feet Rate Location/Type
Wed 03:06:00 PM 46.4250 6.4673 53° Northeast  Level Estimated
Wed 03:07:00 PM 46.4871 6.5873 53° Northeast  Level Estimated
Wed 03:08:00 PM 46.5490 6.7076 53° Northeast  Level Estimated
Wed 03:09:00 PM 46.6108 6.8281 53° Northeast  Level Estimated
Wed 03:10:00 PM 46.6725 6.9489 53° Northeast  Level Estimated
Wed 03:11:00 PM 46.7199 7.0420 53° Northeast  Level Estimated
Wed 03:12:00 PM 46.7672 7.1353 53° Northeast  Level Estimated
Wed 03:13:00 PM 46.8127 7.2253 54° Northeast  Level Estimated
Wed 03:14:00 PM 46.8581 7.3155 54° Northeast  Level Estimated
Wed 03:15:00 PM 46.9034 7.4057 54° Northeast  Level Estimated
Wed 03:16:00 PM 46.9504 7.4997 54° Northeast  Level Estimated
Wed 03:17:00 PM 46.9973 7.5938 54° Northeast  Level Estimated
Wed 03:18:00 PM 47.0480 7.6959 54° Northeast  Level Estimated
Wed 03:19:00 PM 47.0987 7.7982 54° Northeast  Level Estimated
Wed 03:20:00 PM 47.1492 7.9007 54° Northeast  Level Estimated
Wed 03:21:00 PM 47.1997 8.0034 54° Northeast  Level Estimated
Wed 03:22:00 PM 47.2501 8.1063 54° Northeast  Level Estimated
Wed 03:23:00 PM 47.2983 8.2053 54° Northeast  Level Estimated
Wed 03:24:00 PM 47.3465 8.3044 54° Northeast  Level Estimated
Wed 03:25:00 PM 47.3946 8.4038 54° Northeast  Level Estimated
Wed 03:26:00 PM 47.4492 8.5169 54° Northeast  Level Estimated
Wed 03:27:00 PM 47.4647 8.5492 55° Northeast  Level Estimated
Wed 03:28:00 PM 47.4647 8.5492 315° West  Level Estimated
Wed 03:29:00 PM 47.4647 8.5492 315° West  Level Estimated
Wed 03:30:00 PM 47.4647 8.5492 315° West  Level Estimated
Wed 03:31:00 PM 47.4647 8.5492 315° West  Level Estimated
Wed 03:32:00 PM 47.4647 8.5492 315° West  Level Estimated
Wed 03:33:00 PM 47.4647 8.5492 315° West  Level Estimated
Wed 03:34:00 PM 47.4647 8.5492 315° West  Level Estimated
Wed 03:35:00 PM 47.4647 8.5492 315° West  Level Estimated
Wed 03:36:00 PM 47.4647 8.5492 315° West  Level Estimated
Wed 03:37:00 PM 47.4647 8.5492 315° West  Level Estimated
Wed 03:38:00 PM 47.4647 8.5492 315° West  Level Estimated
Wed 03:39:00 PM 47.4647 8.5492 315° West  Level Estimated
Wed 03:40:00 PM 47.4647 8.5492 315° West  Level Estimated

Login

Don't have an account? Register now (free) for customized features, flight alerts, and more!